sensor_id;sensor_type;location;lat;lon;timestamp;P1;durP1;ratioP1;P2;durP2;ratioP2
25535;SDS011;13431;51.352;6.412;2023-02-19T00:01:46;11.82;;;10.73;;
25535;SDS011;13431;51.352;6.412;2023-02-19T00:04:15;11.80;;;10.80;;
25535;SDS011;13431;51.352;6.412;2023-02-19T00:06:44;12.48;;;11.48;;
25535;SDS011;13431;51.352;6.412;2023-02-19T00:09:14;12.20;;;11.00;;
25535;SDS011;13431;51.352;6.412;2023-02-19T00:11:43;12.15;;;11.05;;
25535;SDS011;13431;51.352;6.412;2023-02-19T00:14:13;11.30;;;10.30;;
25535;SDS011;13431;51.352;6.412;2023-02-19T00:16:43;10.32;;;9.43;;
25535;SDS011;13431;51.352;6.412;2023-02-19T00:19:12;11.68;;;10.60;;
25535;SDS011;13431;51.352;6.412;2023-02-19T00:21:41;11.48;;;10.55;;
25535;SDS011;13431;51.352;6.412;2023-02-19T00:24:09;12.27;;;11.20;;
25535;SDS011;13431;51.352;6.412;2023-02-19T00:26:39;12.82;;;11.73;;
25535;SDS011;13431;51.352;6.412;2023-02-19T00:29:07;11.95;;;10.85;;
25535;SDS011;13431;51.352;6.412;2023-02-19T00:31:37;12.05;;;10.98;;
25535;SDS011;13431;51.352;6.412;2023-02-19T00:34:06;11.57;;;10.48;;
25535;SDS011;13431;51.352;6.412;2023-02-19T00:36:35;13.10;;;11.90;;
25535;SDS011;13431;51.352;6.412;2023-02-19T00:39:05;13.00;;;11.75;;
25535;SDS011;13431;51.352;6.412;2023-02-19T00:41:33;13.52;;;12.20;;
25535;SDS011;13431;51.352;6.412;2023-02-19T00:44:02;13.88;;;12.55;;
25535;SDS011;13431;51.352;6.412;2023-02-19T00:46:35;12.65;;;11.30;;
25535;SDS011;13431;51.352;6.412;2023-02-19T00:49:04;14.35;;;12.43;;
25535;SDS011;13431;51.352;6.412;2023-02-19T00:51:34;13.52;;;12.18;;
25535;SDS011;13431;51.352;6.412;2023-02-19T00:54:04;12.95;;;11.65;;
25535;SDS011;13431;51.352;6.412;2023-02-19T00:56:31;14.23;;;12.68;;
25535;SDS011;13431;51.352;6.412;2023-02-19T00:58:59;13.80;;;12.40;;
25535;SDS011;13431;51.352;6.412;2023-02-19T01:01:26;13.88;;;12.43;;
25535;SDS011;13431;51.352;6.412;2023-02-19T01:03:54;13.77;;;12.50;;
25535;SDS011;13431;51.352;6.412;2023-02-19T01:06:21;14.10;;;11.45;;
25535;SDS011;13431;51.352;6.412;2023-02-19T01:08:49;14.00;;;12.55;;
25535;SDS011;13431;51.352;6.412;2023-02-19T01:11:17;14.93;;;12.73;;
25535;SDS011;13431;51.352;6.412;2023-02-19T01:13:46;13.77;;;12.25;;
25535;SDS011;13431;51.352;6.412;2023-02-19T01:16:21;15.60;;;12.25;;
25535;SDS011;13431;51.352;6.412;2023-02-19T01:18:50;13.75;;;12.32;;
25535;SDS011;13431;51.352;6.412;2023-02-19T01:21:22;15.90;;;13.07;;
25535;SDS011;13431;51.352;6.412;2023-02-19T01:23:51;17.00;;;13.68;;
25535;SDS011;13431;51.352;6.412;2023-02-19T01:26:21;14.88;;;13.38;;
25535;SDS011;13431;51.352;6.412;2023-02-19T01:28:53;14.88;;;13.38;;
25535;SDS011;13431;51.352;6.412;2023-02-19T01:31:21;16.13;;;14.00;;
25535;SDS011;13431;51.352;6.412;2023-02-19T01:33:52;17.08;;;13.93;;
25535;SDS011;13431;51.352;6.412;2023-02-19T01:36:22;18.17;;;14.40;;
25535;SDS011;13431;51.352;6.412;2023-02-19T01:38:49;15.25;;;13.52;;
25535;SDS011;13431;51.352;6.412;2023-02-19T01:41:21;18.73;;;15.40;;
25535;SDS011;13431;51.352;6.412;2023-02-19T01:46:42;21.13;;;15.73;;
25535;SDS011;13431;51.352;6.412;2023-02-19T01:49:13;19.65;;;15.13;;
25535;SDS011;13431;51.352;6.412;2023-02-19T01:51:47;19.52;;;16.35;;
25535;SDS011;13431;51.352;6.412;2023-02-19T01:54:24;18.30;;;16.25;;
25535;SDS011;13431;51.352;6.412;2023-02-19T01:56:55;20.08;;;16.58;;
25535;SDS011;13431;51.352;6.412;2023-02-19T01:59:23;18.60;;;15.65;;
25535;SDS011;13431;51.352;6.412;2023-02-19T02:01:51;23.88;;;16.92;;
25535;SDS011;13431;51.352;6.412;2023-02-19T02:04:19;19.25;;;15.90;;
25535;SDS011;13431;51.352;6.412;2023-02-19T02:06:48;19.08;;;16.95;;
25535;SDS011;13431;51.352;6.412;2023-02-19T02:09:18;19.20;;;17.13;;
25535;SDS011;13431;51.352;6.412;2023-02-19T02:12:05;18.88;;;16.83;;
25535;SDS011;13431;51.352;6.412;2023-02-19T02:14:33;23.75;;;18.38;;
25535;SDS011;13431;51.352;6.412;2023-02-19T02:25:31;23.23;;;19.88;;
25535;SDS011;13431;51.352;6.412;2023-02-19T02:31:25;21.58;;;18.30;;
25535;SDS011;13431;51.352;6.412;2023-02-19T02:36:46;21.02;;;17.77;;
25535;SDS011;13431;51.352;6.412;2023-02-19T02:39:19;19.67;;;17.38;;
25535;SDS011;13431;51.352;6.412;2023-02-19T02:41:55;24.10;;;17.85;;
25535;SDS011;13431;51.352;6.412;2023-02-19T02:44:51;22.30;;;18.08;;
25535;SDS011;13431;51.352;6.412;2023-02-19T02:47:50;22.95;;;18.38;;
25535;SDS011;13431;51.352;6.412;2023-02-19T02:50:24;21.92;;;17.35;;
25535;SDS011;13431;51.352;6.412;2023-02-19T02:53:02;21.58;;;16.65;;
25535;SDS011;13431;51.352;6.412;2023-02-19T02:55:53;20.00;;;16.08;;
25535;SDS011;13431;51.352;6.412;2023-02-19T02:58:22;19.55;;;17.38;;
25535;SDS011;13431;51.352;6.412;2023-02-19T03:00:55;25.23;;;17.08;;
25535;SDS011;13431;51.352;6.412;2023-02-19T03:03:46;22.08;;;16.38;;
25535;SDS011;13431;51.352;6.412;2023-02-19T03:06:17;21.00;;;16.67;;
25535;SDS011;13431;51.352;6.412;2023-02-19T03:08:49;23.98;;;17.45;;
25535;SDS011;13431;51.352;6.412;2023-02-19T03:11:21;24.55;;;17.98;;
25535;SDS011;13431;51.352;6.412;2023-02-19T03:14:10;21.48;;;16.58;;
25535;SDS011;13431;51.352;6.412;2023-02-19T03:17:07;17.73;;;14.35;;
25535;SDS011;13431;51.352;6.412;2023-02-19T03:19:59;24.02;;;16.52;;
25535;SDS011;13431;51.352;6.412;2023-02-19T03:22:31;19.83;;;16.15;;
25535;SDS011;13431;51.352;6.412;2023-02-19T03:25:03;20.17;;;14.65;;
25535;SDS011;13431;51.352;6.412;2023-02-19T03:28:14;23.17;;;14.68;;
25535;SDS011;13431;51.352;6.412;2023-02-19T03:30:49;17.33;;;13.93;;
25535;SDS011;13431;51.352;6.412;2023-02-19T03:33:20;18.15;;;13.40;;
25535;SDS011;13431;51.352;6.412;2023-02-19T03:35:54;23.73;;;15.07;;
25535;SDS011;13431;51.352;6.412;2023-02-19T03:41:06;16.17;;;13.88;;
25535;SDS011;13431;51.352;6.412;2023-02-19T03:46:30;21.85;;;14.10;;
25535;SDS011;13431;51.352;6.412;2023-02-19T03:55:00;16.10;;;13.48;;
25535;SDS011;13431;51.352;6.412;2023-02-19T03:58:36;17.38;;;12.63;;
25535;SDS011;13431;51.352;6.412;2023-02-19T04:01:45;15.10;;;11.15;;
25535;SDS011;13431;51.352;6.412;2023-02-19T04:03:58;16.38;;;10.52;;
25535;SDS011;13431;51.352;6.412;2023-02-19T04:06:30;18.40;;;10.35;;
25535;SDS011;13431;51.352;6.412;2023-02-19T04:09:00;14.15;;;11.02;;
25535;SDS011;13431;51.352;6.412;2023-02-19T04:11:30;15.25;;;9.93;;
25535;SDS011;13431;51.352;6.412;2023-02-19T04:17:01;17.73;;;10.02;;
25535;SDS011;13431;51.352;6.412;2023-02-19T04:19:32;13.70;;;9.25;;
25535;SDS011;13431;51.352;6.412;2023-02-19T04:22:03;15.05;;;9.05;;
25535;SDS011;13431;51.352;6.412;2023-02-19T04:24:41;15.70;;;10.05;;
25535;SDS011;13431;51.352;6.412;2023-02-19T04:27:13;11.25;;;8.30;;
25535;SDS011;13431;51.352;6.412;2023-02-19T04:29:41;11.20;;;8.15;;
25535;SDS011;13431;51.352;6.412;2023-02-19T04:32:09;13.40;;;8.90;;
25535;SDS011;13431;51.352;6.412;2023-02-19T04:34:37;14.15;;;8.43;;
25535;SDS011;13431;51.352;6.412;2023-02-19T04:37:04;12.00;;;7.97;;
25535;SDS011;13431;51.352;6.412;2023-02-19T04:39:32;13.05;;;7.28;;
25535;SDS011;13431;51.352;6.412;2023-02-19T04:42:00;13.88;;;7.15;;
25535;SDS011;13431;51.352;6.412;2023-02-19T04:44:27;13.23;;;7.80;;
25535;SDS011;13431;51.352;6.412;2023-02-19T04:46:54;13.10;;;8.50;;
25535;SDS011;13431;51.352;6.412;2023-02-19T04:49:22;13.27;;;7.20;;
25535;SDS011;13431;51.352;6.412;2023-02-19T04:51:49;13.88;;;7.22;;
25535;SDS011;13431;51.352;6.412;2023-02-19T04:54:16;13.13;;;7.22;;
25535;SDS011;13431;51.352;6.412;2023-02-19T04:56:43;13.05;;;7.25;;
25535;SDS011;13431;51.352;6.412;2023-02-19T04:59:11;13.77;;;7.22;;
25535;SDS011;13431;51.352;6.412;2023-02-19T05:01:38;12.73;;;6.70;;
25535;SDS011;13431;51.352;6.412;2023-02-19T05:04:06;12.15;;;7.38;;
25535;SDS011;13431;51.352;6.412;2023-02-19T05:06:33;13.48;;;6.72;;
25535;SDS011;13431;51.352;6.412;2023-02-19T05:09:00;15.95;;;7.78;;
25535;SDS011;13431;51.352;6.412;2023-02-19T05:11:28;11.32;;;6.13;;
25535;SDS011;13431;51.352;6.412;2023-02-19T05:13:55;18.27;;;8.05;;
25535;SDS011;13431;51.352;6.412;2023-02-19T05:16:22;12.48;;;6.97;;
25535;SDS011;13431;51.352;6.412;2023-02-19T05:18:51;14.38;;;6.00;;
25535;SDS011;13431;51.352;6.412;2023-02-19T05:21:18;11.07;;;6.50;;
25535;SDS011;13431;51.352;6.412;2023-02-19T05:23:45;13.70;;;7.20;;
25535;SDS011;13431;51.352;6.412;2023-02-19T05:26:14;16.77;;;8.05;;
25535;SDS011;13431;51.352;6.412;2023-02-19T05:28:48;13.20;;;7.30;;
25535;SDS011;13431;51.352;6.412;2023-02-19T05:31:17;11.90;;;6.45;;
25535;SDS011;13431;51.352;6.412;2023-02-19T05:33:45;12.32;;;6.65;;
25535;SDS011;13431;51.352;6.412;2023-02-19T05:36:17;13.52;;;7.20;;
25535;SDS011;13431;51.352;6.412;2023-02-19T05:38:46;9.32;;;5.85;;
25535;SDS011;13431;51.352;6.412;2023-02-19T05:41:15;14.32;;;6.78;;
25535;SDS011;13431;51.352;6.412;2023-02-19T05:43:44;11.40;;;5.45;;
25535;SDS011;13431;51.352;6.412;2023-02-19T05:46:14;14.23;;;5.82;;
25535;SDS011;13431;51.352;6.412;2023-02-19T05:48:44;8.05;;;4.85;;
25535;SDS011;13431;51.352;6.412;2023-02-19T05:51:13;14.00;;;5.72;;
25535;SDS011;13431;51.352;6.412;2023-02-19T05:53:42;12.88;;;5.40;;
25535;SDS011;13431;51.352;6.412;2023-02-19T05:58:49;14.27;;;5.45;;
25535;SDS011;13431;51.352;6.412;2023-02-19T06:01:18;10.95;;;5.00;;
25535;SDS011;13431;51.352;6.412;2023-02-19T06:03:47;16.55;;;5.72;;
25535;SDS011;13431;51.352;6.412;2023-02-19T06:06:15;11.85;;;5.15;;
25535;SDS011;13431;51.352;6.412;2023-02-19T06:08:43;12.30;;;5.38;;
25535;SDS011;13431;51.352;6.412;2023-02-19T06:11:11;10.45;;;5.47;;
25535;SDS011;13431;51.352;6.412;2023-02-19T06:13:38;11.07;;;5.07;;
25535;SDS011;13431;51.352;6.412;2023-02-19T06:16:06;14.63;;;6.15;;
25535;SDS011;13431;51.352;6.412;2023-02-19T06:18:34;12.50;;;5.53;;
25535;SDS011;13431;51.352;6.412;2023-02-19T06:21:02;13.00;;;6.20;;
25535;SDS011;13431;51.352;6.412;2023-02-19T06:23:31;14.73;;;6.13;;
25535;SDS011;13431;51.352;6.412;2023-02-19T06:26:19;13.35;;;5.40;;
25535;SDS011;13431;51.352;6.412;2023-02-19T06:28:49;12.77;;;5.15;;
25535;SDS011;13431;51.352;6.412;2023-02-19T06:31:18;14.98;;;6.45;;
25535;SDS011;13431;51.352;6.412;2023-02-19T06:33:46;13.23;;;6.50;;
25535;SDS011;13431;51.352;6.412;2023-02-19T06:36:17;10.35;;;6.18;;
25535;SDS011;13431;51.352;6.412;2023-02-19T06:38:46;9.43;;;6.05;;
25535;SDS011;13431;51.352;6.412;2023-02-19T06:41:13;13.98;;;6.95;;
25535;SDS011;13431;51.352;6.412;2023-02-19T06:43:41;13.52;;;6.35;;
25535;SDS011;13431;51.352;6.412;2023-02-19T06:46:09;12.23;;;6.65;;
25535;SDS011;13431;51.352;6.412;2023-02-19T06:48:38;13.15;;;5.80;;
25535;SDS011;13431;51.352;6.412;2023-02-19T06:51:07;13.05;;;6.82;;
25535;SDS011;13431;51.352;6.412;2023-02-19T06:53:39;13.20;;;7.40;;
25535;SDS011;13431;51.352;6.412;2023-02-19T06:56:20;13.07;;;6.07;;
25535;SDS011;13431;51.352;6.412;2023-02-19T06:58:53;14.25;;;6.90;;
25535;SDS011;13431;51.352;6.412;2023-02-19T07:01:22;16.35;;;6.70;;
25535;SDS011;13431;51.352;6.412;2023-02-19T07:03:50;13.77;;;7.45;;
25535;SDS011;13431;51.352;6.412;2023-02-19T07:06:18;11.35;;;6.30;;
25535;SDS011;13431;51.352;6.412;2023-02-19T07:08:47;10.93;;;6.47;;
25535;SDS011;13431;51.352;6.412;2023-02-19T07:11:17;14.52;;;6.95;;
25535;SDS011;13431;51.352;6.412;2023-02-19T07:13:44;12.57;;;6.53;;
25535;SDS011;13431;51.352;6.412;2023-02-19T07:16:12;12.68;;;5.95;;
25535;SDS011;13431;51.352;6.412;2023-02-19T07:18:40;11.07;;;5.25;;
25535;SDS011;13431;51.352;6.412;2023-02-19T07:21:09;10.05;;;5.60;;
25535;SDS011;13431;51.352;6.412;2023-02-19T07:23:39;9.50;;;4.72;;
25535;SDS011;13431;51.352;6.412;2023-02-19T07:26:08;10.35;;;5.85;;
25535;SDS011;13431;51.352;6.412;2023-02-19T07:28:37;10.48;;;5.50;;
25535;SDS011;13431;51.352;6.412;2023-02-19T07:31:06;11.15;;;5.95;;
25535;SDS011;13431;51.352;6.412;2023-02-19T07:33:34;11.73;;;6.47;;
25535;SDS011;13431;51.352;6.412;2023-02-19T07:36:02;16.63;;;7.57;;
25535;SDS011;13431;51.352;6.412;2023-02-19T07:38:29;14.05;;;7.40;;
25535;SDS011;13431;51.352;6.412;2023-02-19T07:40:57;14.75;;;6.47;;
25535;SDS011;13431;51.352;6.412;2023-02-19T07:43:27;19.67;;;7.78;;
25535;SDS011;13431;51.352;6.412;2023-02-19T07:45:57;14.63;;;7.40;;
25535;SDS011;13431;51.352;6.412;2023-02-19T07:48:28;12.25;;;6.53;;
25535;SDS011;13431;51.352;6.412;2023-02-19T07:50:57;15.27;;;6.25;;
25535;SDS011;13431;51.352;6.412;2023-02-19T07:53:26;12.15;;;7.28;;
25535;SDS011;13431;51.352;6.412;2023-02-19T07:55:57;14.52;;;7.18;;
25535;SDS011;13431;51.352;6.412;2023-02-19T07:58:29;13.32;;;5.55;;
25535;SDS011;13431;51.352;6.412;2023-02-19T08:01:04;13.00;;;6.13;;
25535;SDS011;13431;51.352;6.412;2023-02-19T08:04:10;15.02;;;6.50;;
25535;SDS011;13431;51.352;6.412;2023-02-19T08:06:39;14.10;;;6.00;;
25535;SDS011;13431;51.352;6.412;2023-02-19T08:09:07;14.77;;;6.03;;
25535;SDS011;13431;51.352;6.412;2023-02-19T08:11:34;12.50;;;7.20;;
25535;SDS011;13431;51.352;6.412;2023-02-19T08:14:24;14.30;;;6.38;;
25535;SDS011;13431;51.352;6.412;2023-02-19T08:16:52;11.30;;;5.88;;
25535;SDS011;13431;51.352;6.412;2023-02-19T08:19:20;13.80;;;6.30;;
25535;SDS011;13431;51.352;6.412;2023-02-19T08:21:48;12.40;;;6.85;;
25535;SDS011;13431;51.352;6.412;2023-02-19T08:24:16;10.32;;;5.40;;
25535;SDS011;13431;51.352;6.412;2023-02-19T08:26:43;9.15;;;5.53;;
25535;SDS011;13431;51.352;6.412;2023-02-19T08:29:11;11.93;;;5.35;;
25535;SDS011;13431;51.352;6.412;2023-02-19T08:31:38;12.60;;;7.60;;
25535;SDS011;13431;51.352;6.412;2023-02-19T08:34:05;9.27;;;5.80;;
25535;SDS011;13431;51.352;6.412;2023-02-19T08:36:33;10.80;;;5.93;;
25535;SDS011;13431;51.352;6.412;2023-02-19T08:39:00;10.73;;;5.97;;
25535;SDS011;13431;51.352;6.412;2023-02-19T08:41:28;12.25;;;5.80;;
25535;SDS011;13431;51.352;6.412;2023-02-19T08:43:55;15.07;;;6.32;;
25535;SDS011;13431;51.352;6.412;2023-02-19T08:46:22;10.13;;;5.60;;
25535;SDS011;13431;51.352;6.412;2023-02-19T08:48:50;10.68;;;6.22;;
25535;SDS011;13431;51.352;6.412;2023-02-19T08:51:17;10.82;;;5.68;;
25535;SDS011;13431;51.352;6.412;2023-02-19T08:53:45;10.55;;;6.13;;
25535;SDS011;13431;51.352;6.412;2023-02-19T08:56:13;11.75;;;6.22;;
25535;SDS011;13431;51.352;6.412;2023-02-19T08:58:42;14.07;;;6.75;;
25535;SDS011;13431;51.352;6.412;2023-02-19T09:01:11;12.27;;;6.95;;
25535;SDS011;13431;51.352;6.412;2023-02-19T09:03:41;12.60;;;5.82;;
25535;SDS011;13431;51.352;6.412;2023-02-19T09:06:15;9.18;;;5.60;;
25535;SDS011;13431;51.352;6.412;2023-02-19T09:08:45;8.38;;;6.03;;
25535;SDS011;13431;51.352;6.412;2023-02-19T09:11:13;8.63;;;5.85;;
25535;SDS011;13431;51.352;6.412;2023-02-19T09:13:40;9.30;;;4.82;;
25535;SDS011;13431;51.352;6.412;2023-02-19T09:16:09;8.57;;;5.05;;
25535;SDS011;13431;51.352;6.412;2023-02-19T09:18:36;7.28;;;4.75;;
25535;SDS011;13431;51.352;6.412;2023-02-19T09:21:04;8.25;;;4.57;;
25535;SDS011;13431;51.352;6.412;2023-02-19T09:23:32;9.90;;;5.90;;
25535;SDS011;13431;51.352;6.412;2023-02-19T09:26:00;9.68;;;5.68;;
25535;SDS011;13431;51.352;6.412;2023-02-19T09:28:32;6.60;;;4.93;;
25535;SDS011;13431;51.352;6.412;2023-02-19T09:31:03;8.43;;;4.53;;
25535;SDS011;13431;51.352;6.412;2023-02-19T09:33:32;8.23;;;4.80;;
25535;SDS011;13431;51.352;6.412;2023-02-19T09:35:59;8.18;;;5.28;;
25535;SDS011;13431;51.352;6.412;2023-02-19T09:38:27;7.28;;;5.07;;
25535;SDS011;13431;51.352;6.412;2023-02-19T09:40:56;10.40;;;4.82;;
25535;SDS011;13431;51.352;6.412;2023-02-19T09:43:26;6.32;;;4.65;;
25535;SDS011;13431;51.352;6.412;2023-02-19T09:46:02;7.30;;;5.05;;
25535;SDS011;13431;51.352;6.412;2023-02-19T09:48:35;5.55;;;4.90;;
25535;SDS011;13431;51.352;6.412;2023-02-19T09:51:06;11.40;;;5.80;;
25535;SDS011;13431;51.352;6.412;2023-02-19T09:53:39;7.97;;;5.25;;
25535;SDS011;13431;51.352;6.412;2023-02-19T09:56:10;7.18;;;4.65;;
25535;SDS011;13431;51.352;6.412;2023-02-19T09:58:43;7.70;;;5.38;;
25535;SDS011;13431;51.352;6.412;2023-02-19T10:01:14;5.65;;;3.70;;
25535;SDS011;13431;51.352;6.412;2023-02-19T10:03:44;4.65;;;3.75;;
25535;SDS011;13431;51.352;6.412;2023-02-19T10:06:15;7.13;;;4.45;;
25535;SDS011;13431;51.352;6.412;2023-02-19T10:08:47;5.38;;;4.18;;
25535;SDS011;13431;51.352;6.412;2023-02-19T10:11:41;6.82;;;4.00;;
25535;SDS011;13431;51.352;6.412;2023-02-19T10:14:20;7.10;;;4.15;;
25535;SDS011;13431;51.352;6.412;2023-02-19T10:16:52;6.93;;;4.25;;
25535;SDS011;13431;51.352;6.412;2023-02-19T10:19:20;6.82;;;4.07;;
25535;SDS011;13431;51.352;6.412;2023-02-19T10:21:48;7.85;;;4.53;;
25535;SDS011;13431;51.352;6.412;2023-02-19T10:24:19;5.03;;;4.10;;
25535;SDS011;13431;51.352;6.412;2023-02-19T10:26:49;7.47;;;4.28;;
25535;SDS011;13431;51.352;6.412;2023-02-19T10:29:17;6.93;;;5.35;;
25535;SDS011;13431;51.352;6.412;2023-02-19T10:31:45;5.18;;;4.32;;
25535;SDS011;13431;51.352;6.412;2023-02-19T10:34:20;5.97;;;5.07;;
25535;SDS011;13431;51.352;6.412;2023-02-19T10:36:48;5.93;;;5.32;;
25535;SDS011;13431;51.352;6.412;2023-02-19T10:41:48;7.63;;;5.95;;
25535;SDS011;13431;51.352;6.412;2023-02-19T10:46:48;8.38;;;6.68;;
25535;SDS011;13431;51.352;6.412;2023-02-19T10:49:22;9.73;;;6.43;;
25535;SDS011;13431;51.352;6.412;2023-02-19T10:51:54;7.97;;;6.32;;
25535;SDS011;13431;51.352;6.412;2023-02-19T10:54:27;6.72;;;5.88;;
25535;SDS011;13431;51.352;6.412;2023-02-19T11:02:27;5.85;;;5.25;;
25535;SDS011;13431;51.352;6.412;2023-02-19T11:07:32;9.18;;;7.03;;
25535;SDS011;13431;51.352;6.412;2023-02-19T11:09:59;8.13;;;6.57;;
25535;SDS011;13431;51.352;6.412;2023-02-19T11:12:28;8.18;;;6.50;;
25535;SDS011;13431;51.352;6.412;2023-02-19T11:15:00;7.25;;;6.45;;
25535;SDS011;13431;51.352;6.412;2023-02-19T11:17:43;8.35;;;6.53;;
25535;SDS011;13431;51.352;6.412;2023-02-19T11:20:14;10.77;;;6.47;;
25535;SDS011;13431;51.352;6.412;2023-02-19T11:22:43;8.05;;;6.45;;
25535;SDS011;13431;51.352;6.412;2023-02-19T11:27:52;11.23;;;5.90;;
25535;SDS011;13431;51.352;6.412;2023-02-19T11:30:37;6.75;;;5.38;;
25535;SDS011;13431;51.352;6.412;2023-02-19T11:35:42;5.47;;;4.57;;
25535;SDS011;13431;51.352;6.412;2023-02-19T11:38:11;11.77;;;5.63;;
25535;SDS011;13431;51.352;6.412;2023-02-19T11:40:43;5.90;;;4.50;;
25535;SDS011;13431;51.352;6.412;2023-02-19T11:46:42;5.43;;;5.03;;
25535;SDS011;13431;51.352;6.412;2023-02-19T11:52:23;5.28;;;4.25;;
25535;SDS011;13431;51.352;6.412;2023-02-19T11:58:01;6.47;;;5.13;;
25535;SDS011;13431;51.352;6.412;2023-02-19T12:01:34;6.95;;;4.35;;
25535;SDS011;13431;51.352;6.412;2023-02-19T12:03:53;4.72;;;4.32;;
25535;SDS011;13431;51.352;6.412;2023-02-19T12:21:05;5.25;;;4.80;;
25535;SDS011;13431;51.352;6.412;2023-02-19T12:29:23;5.45;;;4.82;;
25535;SDS011;13431;51.352;6.412;2023-02-19T12:37:26;6.97;;;4.63;;
25535;SDS011;13431;51.352;6.412;2023-02-19T12:43:08;4.45;;;3.42;;
25535;SDS011;13431;51.352;6.412;2023-02-19T12:45:57;3.80;;;3.35;;
25535;SDS011;13431;51.352;6.412;2023-02-19T12:48:39;4.05;;;3.45;;
25535;SDS011;13431;51.352;6.412;2023-02-19T12:57:00;4.50;;;4.10;;
25535;SDS011;13431;51.352;6.412;2023-02-19T12:59:32;6.90;;;3.97;;
25535;SDS011;13431;51.352;6.412;2023-02-19T13:02:24;4.75;;;4.03;;
25535;SDS011;13431;51.352;6.412;2023-02-19T13:06:15;6.45;;;4.05;;
25535;SDS011;13431;51.352;6.412;2023-02-19T13:08:43;6.05;;;4.63;;
25535;SDS011;13431;51.352;6.412;2023-02-19T13:16:51;6.78;;;6.25;;
25535;SDS011;13431;51.352;6.412;2023-02-19T13:19:23;7.20;;;6.50;;
25535;SDS011;13431;51.352;6.412;2023-02-19T13:21:54;7.32;;;6.60;;
25535;SDS011;13431;51.352;6.412;2023-02-19T13:24:53;7.82;;;6.85;;
25535;SDS011;13431;51.352;6.412;2023-02-19T13:27:32;7.75;;;7.10;;
25535;SDS011;13431;51.352;6.412;2023-02-19T13:38:32;8.57;;;7.78;;
25535;SDS011;13431;51.352;6.412;2023-02-19T13:41:04;8.88;;;7.10;;
25535;SDS011;13431;51.352;6.412;2023-02-19T13:43:32;10.68;;;7.30;;
25535;SDS011;13431;51.352;6.412;2023-02-19T13:46:05;7.78;;;6.70;;
25535;SDS011;13431;51.352;6.412;2023-02-19T13:48:36;6.70;;;6.03;;
25535;SDS011;13431;51.352;6.412;2023-02-19T13:53:57;6.65;;;5.93;;
25535;SDS011;13431;51.352;6.412;2023-02-19T13:59:45;4.93;;;4.35;;
25535;SDS011;13431;51.352;6.412;2023-02-19T14:09:44;3.40;;;3.10;;
25535;SDS011;13431;51.352;6.412;2023-02-19T14:25:21;3.47;;;2.75;;
25535;SDS011;13431;51.352;6.412;2023-02-19T14:28:00;3.08;;;2.47;;
25535;SDS011;13431;51.352;6.412;2023-02-19T14:30:31;2.60;;;2.08;;
25535;SDS011;13431;51.352;6.412;2023-02-19T14:33:01;3.13;;;2.40;;
25535;SDS011;13431;51.352;6.412;2023-02-19T14:35:40;3.00;;;2.53;;
25535;SDS011;13431;51.352;6.412;2023-02-19T14:41:14;3.25;;;2.17;;
25535;SDS011;13431;51.352;6.412;2023-02-19T14:43:44;3.50;;;2.40;;
25535;SDS011;13431;51.352;6.412;2023-02-19T14:46:22;4.28;;;2.35;;
25535;SDS011;13431;51.352;6.412;2023-02-19T14:48:56;4.40;;;3.25;;
25535;SDS011;13431;51.352;6.412;2023-02-19T14:51:37;6.75;;;2.90;;
25535;SDS011;13431;51.352;6.412;2023-02-19T14:54:15;3.88;;;2.92;;
25535;SDS011;13431;51.352;6.412;2023-02-19T14:56:47;5.13;;;2.30;;
25535;SDS011;13431;51.352;6.412;2023-02-19T14:59:24;3.88;;;2.53;;
25535;SDS011;13431;51.352;6.412;2023-02-19T15:01:58;2.90;;;2.60;;
25535;SDS011;13431;51.352;6.412;2023-02-19T15:04:28;5.45;;;3.13;;
25535;SDS011;13431;51.352;6.412;2023-02-19T15:07:01;4.25;;;3.88;;
25535;SDS011;13431;51.352;6.412;2023-02-19T15:09:38;3.13;;;2.80;;
25535;SDS011;13431;51.352;6.412;2023-02-19T15:12:13;3.50;;;2.90;;
25535;SDS011;13431;51.352;6.412;2023-02-19T15:14:43;3.17;;;2.67;;
25535;SDS011;13431;51.352;6.412;2023-02-19T15:17:15;3.40;;;3.10;;
25535;SDS011;13431;51.352;6.412;2023-02-19T15:19:54;7.72;;;3.92;;
25535;SDS011;13431;51.352;6.412;2023-02-19T15:22:24;3.85;;;2.92;;
25535;SDS011;13431;51.352;6.412;2023-02-19T15:24:54;4.53;;;3.15;;
25535;SDS011;13431;51.352;6.412;2023-02-19T15:27:22;4.18;;;3.78;;
25535;SDS011;13431;51.352;6.412;2023-02-19T15:29:51;3.47;;;2.92;;
25535;SDS011;13431;51.352;6.412;2023-02-19T15:32:20;6.80;;;4.25;;
25535;SDS011;13431;51.352;6.412;2023-02-19T15:34:53;5.38;;;4.18;;
25535;SDS011;13431;51.352;6.412;2023-02-19T15:37:23;6.30;;;4.18;;
25535;SDS011;13431;51.352;6.412;2023-02-19T15:39:53;7.40;;;4.35;;
25535;SDS011;13431;51.352;6.412;2023-02-19T15:42:28;4.88;;;2.80;;
25535;SDS011;13431;51.352;6.412;2023-02-19T15:47:37;3.63;;;2.97;;
25535;SDS011;13431;51.352;6.412;2023-02-19T15:50:12;2.95;;;2.55;;
25535;SDS011;13431;51.352;6.412;2023-02-19T15:52:54;1.60;;;1.50;;
25535;SDS011;13431;51.352;6.412;2023-02-19T15:55:39;4.70;;;2.22;;
25535;SDS011;13431;51.352;6.412;2023-02-19T16:00:54;1.83;;;1.58;;
25535;SDS011;13431;51.352;6.412;2023-02-19T16:03:28;3.95;;;1.48;;
25535;SDS011;13431;51.352;6.412;2023-02-19T16:08:32;5.15;;;2.00;;
25535;SDS011;13431;51.352;6.412;2023-02-19T16:11:05;1.27;;;1.17;;
25535;SDS011;13431;51.352;6.412;2023-02-19T16:14:14;2.60;;;1.15;;
25535;SDS011;13431;51.352;6.412;2023-02-19T16:16:45;1.63;;;1.52;;
25535;SDS011;13431;51.352;6.412;2023-02-19T16:19:19;1.70;;;1.60;;
25535;SDS011;13431;51.352;6.412;2023-02-19T16:21:47;3.42;;;1.50;;
25535;SDS011;13431;51.352;6.412;2023-02-19T16:24:25;4.38;;;2.58;;
25535;SDS011;13431;51.352;6.412;2023-02-19T16:27:03;3.65;;;3.13;;
25535;SDS011;13431;51.352;6.412;2023-02-19T16:29:33;4.40;;;3.22;;
25535;SDS011;13431;51.352;6.412;2023-02-19T16:32:02;4.22;;;3.92;;
25535;SDS011;13431;51.352;6.412;2023-02-19T16:34:47;3.88;;;3.47;;
25535;SDS011;13431;51.352;6.412;2023-02-19T16:42:34;4.95;;;4.10;;
25535;SDS011;13431;51.352;6.412;2023-02-19T16:45:03;4.68;;;4.13;;
25535;SDS011;13431;51.352;6.412;2023-02-19T16:47:35;4.63;;;3.70;;
25535;SDS011;13431;51.352;6.412;2023-02-19T16:50:06;4.40;;;3.85;;
25535;SDS011;13431;51.352;6.412;2023-02-19T16:52:55;4.53;;;3.80;;
25535;SDS011;13431;51.352;6.412;2023-02-19T16:55:24;3.65;;;3.33;;
25535;SDS011;13431;51.352;6.412;2023-02-19T16:57:53;7.00;;;3.63;;
25535;SDS011;13431;51.352;6.412;2023-02-19T17:00:22;3.65;;;3.22;;
25535;SDS011;13431;51.352;6.412;2023-02-19T17:02:54;3.80;;;3.03;;
25535;SDS011;13431;51.352;6.412;2023-02-19T17:05:28;3.00;;;2.80;;
25535;SDS011;13431;51.352;6.412;2023-02-19T17:07:58;3.20;;;2.90;;
25535;SDS011;13431;51.352;6.412;2023-02-19T17:10:26;3.78;;;3.47;;
25535;SDS011;13431;51.352;6.412;2023-02-19T17:12:54;4.55;;;3.28;;
25535;SDS011;13431;51.352;6.412;2023-02-19T17:15:21;4.00;;;3.22;;
25535;SDS011;13431;51.352;6.412;2023-02-19T17:17:49;3.70;;;3.40;;
25535;SDS011;13431;51.352;6.412;2023-02-19T17:22:49;3.22;;;3.03;;
25535;SDS011;13431;51.352;6.412;2023-02-19T17:25:17;3.65;;;3.10;;
25535;SDS011;13431;51.352;6.412;2023-02-19T17:27:45;3.85;;;3.45;;
25535;SDS011;13431;51.352;6.412;2023-02-19T17:30:14;4.07;;;2.90;;
25535;SDS011;13431;51.352;6.412;2023-02-19T17:32:45;3.95;;;2.92;;
25535;SDS011;13431;51.352;6.412;2023-02-19T17:35:13;2.63;;;2.45;;
25535;SDS011;13431;51.352;6.412;2023-02-19T17:37:40;4.50;;;2.53;;
25535;SDS011;13431;51.352;6.412;2023-02-19T17:40:17;4.68;;;2.53;;
25535;SDS011;13431;51.352;6.412;2023-02-19T17:42:58;3.38;;;2.50;;
25535;SDS011;13431;51.352;6.412;2023-02-19T17:45:26;2.30;;;1.90;;